Time;durP1;ratioP1;P1;durP2;ratioP2;P2;SDS_P1;SDS_P2;PMS_P1;PMS_P2;Temp;Humidity;BMP_temperature;BMP_pressure;BME280_temperature;BME280_humidity;BME280_pressure;Samples;Min_cycle;Max_cycle;Signal;HPM_P1;HPM_P2
2022/03/19 00:00:27;;;;;;;;;1.00;1.00;;;;;21.01;34.60;103166.44;5057364;28;51940;-46
2022/03/19 00:02:52;;;;;;;;;1.25;1.25;;;;;21.01;34.75;103173.84;5056130;28;51044;-45
2022/03/19 00:05:18;;;;;;;;;4.00;3.00;;;;;21.00;34.93;103169.38;5057295;28;52355;-45
2022/03/19 00:07:43;;;;;;;;;1.00;1.00;;;;;20.98;34.43;103174.19;5057487;28;51045;-47
2022/03/19 00:10:10;;;;;;;;;3.00;1.00;;;;;20.97;34.74;103178.84;5057507;28;52010;-48
2022/03/19 00:12:38;;;;;;;;;3.75;3.00;;;;;20.95;34.84;103174.56;5063564;28;51140;-50
2022/03/19 00:15:04;;;;;;;;;3.00;2.00;;;;;20.93;34.44;103174.69;5075159;27;51176;-45
2022/03/19 00:17:30;;;;;;;;;2.00;2.00;;;;;20.93;34.75;103171.06;5076833;27;51124;-45
2022/03/19 00:19:55;;;;;;;;;3.50;3.50;;;;;20.92;34.39;103174.88;5076941;28;51207;-48
2022/03/19 00:22:21;;;;;;;;;1.75;1.75;;;;;20.91;34.37;103184.16;5062586;27;51181;-46
2022/03/19 00:24:46;;;;;;;;;2.75;2.75;;;;;20.89;34.68;103177.97;5058656;28;51052;-45
2022/03/19 00:27:11;;;;;;;;;2.00;2.00;;;;;20.87;34.33;103178.13;5073450;27;51215;-45
2022/03/19 00:29:37;;;;;;;;;3.75;2.25;;;;;20.86;34.38;103173.66;5074376;27;51038;-47
2022/03/19 00:32:02;;;;;;;;;2.00;0.25;;;;;20.85;34.34;103171.94;5072765;27;51119;-45
2022/03/19 00:34:28;;;;;;;;;2.00;2.00;;;;;20.84;34.53;103175.72;5066624;28;51255;-45
2022/03/19 00:36:53;;;;;;;;;1.00;1.00;;;;;20.84;34.42;103177.59;5071698;28;51421;-46
2022/03/19 00:39:19;;;;;;;;;2.00;2.00;;;;;20.82;34.56;103171.41;5059482;28;51980;-45
2022/03/19 00:41:44;;;;;;;;;1.50;1.50;;;;;20.80;34.64;103166.06;5058350;28;51112;-45
2022/03/19 00:44:09;;;;;;;;;2.50;2.50;;;;;20.79;34.77;103164.34;5057397;28;51659;-46
2022/03/19 00:46:35;;;;;;;;;1.00;1.00;;;;;20.78;34.25;103172.78;5068069;28;51318;-46
2022/03/19 00:49:00;;;;;;;;;2.25;2.25;;;;;20.77;34.30;103169.16;5067022;27;51196;-46
2022/03/19 00:51:26;;;;;;;;;4.00;1.50;;;;;20.76;34.16;103167.44;5058748;28;51336;-46
2022/03/19 00:53:51;;;;;;;;;3.25;2.00;;;;;20.74;34.30;103162.09;5058565;28;51349;-46
2022/03/19 00:56:17;;;;;;;;;2.75;1.00;;;;;20.74;34.45;103167.63;5057492;28;51022;-45
2022/03/19 00:58:42;;;;;;;;;2.50;2.50;;;;;20.72;34.25;103155.03;5069414;28;51114;-51
2022/03/19 01:01:07;;;;;;;;;4.00;1.75;;;;;20.71;34.22;103162.41;5060960;28;51017;-46
2022/03/19 01:03:33;;;;;;;;;1.00;1.00;;;;;20.70;34.53;103149.69;5076742;27;51074;-45
2022/03/19 01:05:58;;;;;;;;;1.00;1.00;;;;;20.69;34.55;103158.97;5076591;27;50985;-45
2022/03/19 01:08:24;;;;;;;;;1.25;1.25;;;;;20.69;34.12;103150.72;5076247;27;51703;-46
2022/03/19 01:10:49;;;;;;;;;1.25;1.25;;;;;20.69;34.28;103149.84;5074801;27;51111;-47
2022/03/19 01:13:14;;;;;;;;;0.00;0.00;;;;;20.66;34.04;103151.06;5072028;28;51020;-46
2022/03/19 01:15:40;;;;;;;;;1.00;1.00;;;;;20.66;34.59;103139.19;5059002;28;51144;-48
2022/03/19 01:18:05;;;;;;;;;1.00;1.00;;;;;20.65;34.25;103142.97;5056692;28;51915;-45
2022/03/19 01:20:31;;;;;;;;;2.00;2.00;;;;;20.64;34.54;103144.88;5064183;28;51412;-46
2022/03/19 01:22:57;;;;;;;;;2.50;1.00;;;;;20.63;34.00;103140.38;5076340;27;51130;-45
2022/03/19 01:25:22;;;;;;;;;2.00;1.00;;;;;20.61;34.54;103139.66;5072025;28;51266;-45
2022/03/19 01:27:49;;;;;;;;;1.00;1.00;;;;;20.60;34.35;103135.19;5072179;28;51080;-48
2022/03/19 01:30:17;;;;;;;;;1.75;1.75;;;;;20.60;34.56;103139.84;5073740;27;51068;-45
2022/03/19 01:32:43;;;;;;;;;2.25;2.00;;;;;20.58;34.42;103126.25;5059896;28;51262;-46
2022/03/19 01:35:10;;;;;;;;;1.25;1.25;;;;;20.57;34.34;103130.03;5057296;28;51195;-46
2022/03/19 01:37:37;;;;;;;;;1.00;1.00;;;;;20.57;34.40;103134.69;5055763;28;51647;-46
2022/03/19 01:40:03;;;;;;;;;1.25;1.00;;;;;20.57;34.23;103137.44;5056318;28;51010;-44
2022/03/19 01:42:37;;;;;;;;;1.00;1.00;;;;;20.55;34.27;103134.84;5064168;28;51114;-43
2022/03/19 01:45:05;;;;;;;;;2.00;2.00;;;;;20.55;34.49;103122.97;5076387;27;51075;-44
2022/03/19 01:47:33;;;;;;;;;1.00;1.00;;;;;20.53;33.93;103120.41;5075517;27;51969;-49
2022/03/19 01:49:58;;;;;;;;;0.50;0.50;;;;;20.52;34.49;103113.13;5074423;27;51252;-47
2022/03/19 01:52:31;;;;;;;;;1.50;1.50;;;;;20.51;34.02;103119.69;5072016;27;51135;-49
2022/03/19 01:54:58;;;;;;;;;2.00;1.00;;;;;20.51;34.43;103116.94;5056487;28;50974;-50
2022/03/19 01:57:26;;;;;;;;;2.00;1.00;;;;;20.50;34.06;103117.97;5074890;28;52064;-48
2022/03/19 01:59:53;;;;;;;;;1.00;1.00;;;;;20.49;34.20;103115.38;5087815;27;51373;-51
2022/03/19 02:02:19;;;;;;;;;1.00;1.00;;;;;20.48;34.17;103114.53;5060035;28;51231;-49
2022/03/19 02:04:44;;;;;;;;;0.75;0.75;;;;;20.47;34.23;103112.81;5066880;28;51411;-50
2022/03/19 02:07:11;;;;;;;;;3.00;1.00;;;;;20.46;34.21;103109.19;5065578;27;51744;-50
2022/03/19 02:09:38;;;;;;;;;2.00;2.00;;;;;20.45;34.19;103112.97;5057131;28;51172;-47
2022/03/19 02:12:05;;;;;;;;;1.50;1.50;;;;;20.44;33.97;103121.41;5071379;28;51165;-48
2022/03/19 02:14:34;;;;;;;;;0.75;0.75;;;;;20.44;34.27;103114.00;5072008;28;51102;-45
2022/03/19 02:17:04;;;;;;;;;1.50;1.50;;;;;20.42;34.39;103116.03;5075493;27;52051;-48
2022/03/19 02:19:30;;;;;;;;;3.00;1.50;;;;;20.43;34.08;103105.91;5074273;27;51398;-46
2022/03/19 02:21:56;;;;;;;;;1.00;1.00;;;;;20.42;34.08;103093.13;5058058;27;51125;-44
2022/03/19 02:27:06;;;;;;;;;1.00;1.00;;;;;20.39;34.30;103094.31;5071640;28;51560;-46
2022/03/19 02:29:32;;;;;;;;;2.50;1.75;;;;;20.39;33.71;103098.97;5068667;27;51158;-44
2022/03/19 02:31:59;;;;;;;;;2.00;1.00;;;;;20.39;34.05;103101.72;5074168;27;51108;-48
2022/03/19 02:34:26;;;;;;;;;3.25;1.00;;;;;20.37;34.04;103099.16;5072985;27;51014;-47
2022/03/19 02:36:51;;;;;;;;;1.00;1.00;;;;;20.37;34.48;103092.78;5068350;28;51019;-50
2022/03/19 02:39:18;;;;;;;;;1.25;1.25;;;;;20.37;34.33;103090.03;5074611;27;51339;-50
2022/03/19 02:41:51;;;;;;;;;2.00;1.00;;;;;20.35;34.28;103092.09;5074177;28;51132;-44
2022/03/19 02:44:18;;;;;;;;;1.00;1.00;;;;;20.34;33.91;103088.47;5075086;27;51169;-50
2022/03/19 02:46:53;;;;;;;;;2.25;1.00;;;;;20.34;34.34;103082.97;5073264;27;52033;-49
2022/03/19 02:49:19;;;;;;;;;2.00;2.00;;;;;20.33;34.17;103080.41;5066565;27;51181;-48
2022/03/19 02:51:46;;;;;;;;;2.00;2.00;;;;;20.32;34.05;103081.41;5074874;27;50979;-46
2022/03/19 02:54:14;;;;;;;;;0.75;0.50;;;;;20.31;34.11;103080.53;5055594;28;51237;-49
2022/03/19 02:56:41;;;;;;;;;1.00;1.00;;;;;20.31;34.47;103080.53;5056316;28;51085;-49
2022/03/19 02:59:09;;;;;;;;;1.00;1.00;;;;;20.31;34.24;103079.66;5070872;28;51389;-44
2022/03/19 03:01:35;;;;;;;;;2.00;2.00;;;;;20.32;34.32;103084.16;5074605;28;51144;-43
2022/03/19 03:04:01;;;;;;;;;2.00;1.00;;;;;20.32;34.06;103075.88;5061673;27;51151;-48
2022/03/19 03:06:28;;;;;;;;;2.00;1.25;;;;;20.30;34.12;103072.44;5055837;28;51988;-43
2022/03/19 03:08:54;;;;;;;;;1.00;1.00;;;;;20.30;34.29;103072.44;5054733;28;51275;-47
2022/03/19 03:11:19;;;;;;;;;1.00;1.00;;;;;20.28;34.53;103072.63;5067989;28;51180;-46
2022/03/19 03:13:44;;;;;;;;;1.50;1.00;;;;;20.28;34.09;103069.88;5070085;27;51041;-47
2022/03/19 03:16:10;;;;;;;;;2.75;2.75;;;;;20.27;34.36;103065.41;5068717;28;52007;-46
2022/03/19 03:18:37;;;;;;;;;2.00;1.25;;;;;20.27;34.43;103061.78;5068051;27;51104;-44
2022/03/19 03:21:02;;;;;;;;;1.25;1.25;;;;;20.26;34.11;103052.66;5067200;27;51211;-46
2022/03/19 03:23:28;;;;;;;;;2.50;2.00;;;;;20.26;34.09;103046.31;5055168;28;51087;-48
2022/03/19 03:25:53;;;;;;;;;1.75;1.75;;;;;20.25;34.26;103048.19;5064802;28;51984;-47
2022/03/19 03:28:18;;;;;;;;;1.75;1.50;;;;;20.24;34.39;103045.63;5074745;27;51172;-46
2022/03/19 03:30:44;;;;;;;;;2.00;2.00;;;;;20.23;34.67;103038.38;5078057;27;51211;-48
2022/03/19 03:33:09;;;;;;;;;1.25;1.25;;;;;20.23;34.13;103041.16;5074327;27;50859;-46
2022/03/19 03:35:35;;;;;;;;;2.00;2.00;;;;;20.21;34.18;103032.16;5074111;28;51818;-45
2022/03/19 03:38:00;;;;;;;;;2.50;2.50;;;;;20.21;34.36;103045.94;5077078;27;51111;-44
2022/03/19 03:40:25;;;;;;;;;2.75;2.75;;;;;20.21;34.12;103043.19;5078148;27;51163;-45
2022/03/19 03:42:51;;;;;;;;;4.25;3.00;;;;;20.19;34.29;103033.19;5071416;27;51344;-47
2022/03/19 03:45:16;;;;;;;;;1.75;1.75;;;;;20.18;34.61;103031.47;5065740;28;51915;-45
2022/03/19 03:47:42;;;;;;;;;1.00;1.00;;;;;20.17;34.13;103046.28;5058144;28;51219;-47
2022/03/19 03:50:08;;;;;;;;;2.25;2.00;;;;;20.17;34.29;103034.41;5058683;28;51120;-44
2022/03/19 03:52:34;;;;;;;;;3.50;3.00;;;;;20.17;34.55;103040.78;5058098;28;51287;-45
2022/03/19 03:54:59;;;;;;;;;2.50;2.00;;;;;20.16;33.88;103041.81;5067477;28;54004;-45
2022/03/19 03:57:25;;;;;;;;;2.00;2.00;;;;;20.15;34.13;103045.59;5058299;27;51053;-45
2022/03/19 03:59:50;;;;;;;;;2.25;1.25;;;;;20.16;34.12;103050.06;5064458;28;50988;-44
2022/03/19 04:02:17;;;;;;;;;2.00;2.00;;;;;20.14;34.43;103043.88;5068368;27;51798;-48
2022/03/19 04:04:42;;;;;;;;;3.25;3.00;;;;;20.13;34.21;103046.78;5066277;28;51384;-44
2022/03/19 04:07:07;;;;;;;;;2.50;2.25;;;;;20.13;34.10;103046.78;5059618;28;51004;-43
2022/03/19 04:09:33;;;;;;;;;3.00;2.00;;;;;20.12;34.13;103047.81;5065306;28;51033;-44
2022/03/19 04:11:58;;;;;;;;;1.00;1.00;;;;;20.11;33.90;103041.47;5060712;28;51341;-47
2022/03/19 04:14:24;;;;;;;;;2.50;2.00;;;;;20.10;34.18;103036.94;5071360;27;51888;-48
2022/03/19 04:16:49;;;;;;;;;3.50;2.00;;;;;20.10;34.20;103050.72;5071465;27;51113;-45
2022/03/19 04:19:14;;;;;;;;;2.50;2.50;;;;;20.08;34.29;103039.00;5068002;27;50941;-44
2022/03/19 04:21:40;;;;;;;;;3.50;2.00;;;;;20.07;34.56;103037.28;5064891;28;51286;-45
2022/03/19 04:24:06;;;;;;;;;3.75;2.00;;;;;20.07;34.11;103031.78;5063492;28;51142;-48
2022/03/19 04:26:31;;;;;;;;;1.00;1.00;;;;;20.06;34.09;103032.81;5069030;28;51028;-48
2022/03/19 04:28:56;;;;;;;;;3.25;3.25;;;;;20.06;34.20;103032.81;5060551;27;51020;-47
2022/03/19 04:31:22;;;;;;;;;3.00;3.00;;;;;20.07;34.12;103036.44;5057749;28;51518;-44
2022/03/19 04:33:48;;;;;;;;;3.00;2.75;;;;;20.05;34.29;103050.38;5074235;28;51713;-48
2022/03/19 04:36:32;;;;;;;;;3.00;3.00;;;;;20.05;34.30;103044.88;5068534;27;51200;-48
2022/03/19 04:38:58;;;;;;;;;2.25;2.25;;;;;20.04;34.13;103040.38;5074675;28;51160;-49
2022/03/19 04:41:24;;;;;;;;;3.50;2.50;;;;;20.03;34.12;103044.19;5071839;27;51069;-49
2022/03/19 04:43:50;;;;;;;;;4.50;3.25;;;;;20.04;34.22;103039.53;5067056;28;52761;-47
2022/03/19 04:46:15;;;;;;;;;2.00;2.00;;;;;20.03;34.39;103035.06;5069490;27;51116;-49
2022/03/19 04:48:44;;;;;;;;;3.25;2.50;;;;;20.02;34.49;103031.44;5064284;27;50973;-45
2022/03/19 04:51:12;;;;;;;;;5.00;3.00;;;;;20.01;34.42;103035.22;5064334;28;51383;-45
2022/03/19 04:53:38;;;;;;;;;3.75;3.75;;;;;20.01;34.07;103032.47;5067229;28;52266;-48
2022/03/19 04:56:04;;;;;;;;;3.00;1.75;;;;;20.01;34.14;103028.84;5069859;27;51477;-49
2022/03/19 04:58:30;;;;;;;;;3.75;3.00;;;;;20.01;34.27;103029.72;5067921;28;51215;-48
2022/03/19 05:00:55;;;;;;;;;2.00;2.00;;;;;20.00;34.08;103027.97;5075696;27;51061;-46
2022/03/19 05:03:21;;;;;;;;;4.00;4.00;;;;;20.00;34.20;103021.63;5071618;27;51207;-46
2022/03/19 05:05:46;;;;;;;;;3.75;3.00;;;;;19.99;34.09;103026.25;5065759;27;50970;-50
2022/03/19 05:08:11;;;;;;;;;3.25;3.25;;;;;19.98;34.14;103021.78;5059755;28;51197;-48
2022/03/19 05:13:20;;;;;;;;;4.00;4.00;;;;;19.97;34.08;103019.22;5062905;28;51507;-45
2022/03/19 05:15:46;;;;;;;;;5.25;4.75;;;;;19.96;34.13;103023.84;5065414;28;50992;-45
2022/03/19 05:18:11;;;;;;;;;4.25;4.00;;;;;19.96;34.51;103025.75;5063369;28;51198;-47
2022/03/19 05:20:36;;;;;;;;;5.00;4.00;;;;;19.95;34.57;103024.88;5056892;28;50970;-45
2022/03/19 05:23:05;;;;;;;;;6.50;3.00;;;;;19.96;34.17;103042.25;5057546;28;51063;-48
2022/03/19 05:25:30;;;;;;;;;5.75;5.00;;;;;19.94;34.43;103025.91;5056599;28;51167;-50
2022/03/19 05:27:56;;;;;;;;;4.75;3.75;;;;;19.93;34.31;103021.44;5056739;28;51124;-47
2022/03/19 05:30:21;;;;;;;;;5.50;5.00;;;;;19.93;34.58;103023.34;5057461;27;51290;-49
2022/03/19 05:32:47;;;;;;;;;3.75;3.75;;;;;19.93;34.26;103023.34;5056162;28;51908;-49
2022/03/19 05:35:12;;;;;;;;;4.00;3.50;;;;;19.92;34.60;103027.97;5056737;28;51070;-50
2022/03/19 05:37:39;;;;;;;;;5.75;4.00;;;;;19.91;34.32;103019.91;5056344;28;51105;-48
2022/03/19 05:40:05;;;;;;;;;6.50;5.50;;;;;19.91;34.24;103022.66;5056925;28;51219;-49
2022/03/19 05:42:31;;;;;;;;;8.25;4.50;;;;;19.91;34.24;103022.66;5066255;28;52617;-45
2022/03/19 05:44:56;;;;;;;;;5.25;4.00;;;;;19.92;34.53;103027.13;5056571;28;51158;-49
2022/03/19 05:47:22;;;;;;;;;5.25;4.50;;;;;19.91;34.41;103030.91;5058524;28;51392;-50
2022/03/19 05:49:47;;;;;;;;;6.75;5.00;;;;;19.89;34.35;103022.78;5076342;27;51285;-49
2022/03/19 05:52:13;;;;;;;;;5.00;5.00;;;;;19.89;34.47;103039.28;5074186;27;51191;-47
2022/03/19 05:54:38;;;;;;;;;7.00;5.00;;;;;19.89;34.47;103039.28;5074479;28;51431;-45
2022/03/19 05:57:04;;;;;;;;;6.50;5.75;;;;;19.89;34.33;103042.03;5063767;27;51012;-46
2022/03/19 05:59:29;;;;;;;;;7.00;5.75;;;;;19.87;34.27;103044.97;5056197;28;51394;-47
2022/03/19 06:01:55;;;;;;;;;5.50;5.50;;;;;19.87;34.24;103038.59;5055440;28;51060;-48
2022/03/19 06:04:20;;;;;;;;;6.00;6.00;;;;;19.86;34.45;103043.25;5056119;28;51245;-47
2022/03/19 06:06:47;;;;;;;;;6.00;6.00;;;;;19.86;34.37;103042.38;5055989;28;51087;-47
2022/03/19 06:09:12;;;;;;;;;7.00;6.75;;;;;19.85;34.62;103041.50;5059728;28;51128;-45
2022/03/19 06:11:39;;;;;;;;;7.50;5.00;;;;;19.85;34.70;103032.41;5065657;27;51881;-50
2022/03/19 06:14:05;;;;;;;;;5.75;5.75;;;;;19.84;34.39;103045.28;5075310;27;51068;-50
2022/03/19 06:16:30;;;;;;;;;3.25;2.25;;;;;19.84;34.44;103037.03;5067181;28;51035;-49
2022/03/19 06:18:55;;;;;;;;;11.25;8.00;;;;;19.83;34.75;103031.72;5061981;28;51423;-47
2022/03/19 06:21:25;;;;;;;;;7.50;5.25;;;;;19.83;34.37;103042.72;5061506;28;51024;-49
2022/03/19 06:23:51;;;;;;;;;10.25;10.00;;;;;19.83;34.39;103034.47;5055908;28;51241;-51
2022/03/19 06:26:20;;;;;;;;;9.25;6.75;;;;;19.83;34.42;103039.97;5061856;28;51110;-50
2022/03/19 06:28:46;;;;;;;;;6.50;6.00;;;;;19.80;34.51;103035.66;5078344;27;51772;-50
2022/03/19 06:31:11;;;;;;;;;7.50;7.00;;;;;19.81;34.29;103039.28;5067913;27;51791;-51
2022/03/19 06:33:41;;;;;;;;;8.25;7.00;;;;;19.80;34.25;103035.66;5071753;28;50946;-48
2022/03/19 06:38:51;;;;;;;;;7.50;7.25;;;;;19.79;34.70;103036.66;5055865;28;51097;-51
2022/03/19 06:41:16;;;;;;;;;10.25;8.50;;;;;19.78;34.70;103029.44;5056231;28;51897;-49
2022/03/19 06:43:43;;;;;;;;;8.00;7.00;;;;;19.78;34.26;103040.44;5055512;28;51201;-51
2022/03/19 06:46:09;;;;;;;;;7.00;6.75;;;;;19.79;34.52;103038.56;5055707;28;51208;-46
2022/03/19 06:48:34;;;;;;;;;6.50;6.25;;;;;19.77;34.55;103035.13;5064718;28;51242;-49
2022/03/19 06:51:00;;;;;;;;;10.25;7.25;;;;;19.77;34.40;103037.88;5067963;27;51047;-49
2022/03/19 06:53:25;;;;;;;;;9.25;7.25;;;;;19.76;34.69;103033.38;5055191;28;51000;-46
2022/03/19 06:55:51;;;;;;;;;7.00;6.25;;;;;19.76;34.42;103034.25;5055331;27;51046;-50
2022/03/19 06:58:17;;;;;;;;;12.25;9.75;;;;;19.75;34.55;103046.28;5060954;28;51282;-48
2022/03/19 07:00:42;;;;;;;;;21.25;16.50;;;;;19.75;34.44;103046.28;5073043;27;51166;-51
2022/03/19 07:03:08;;;;;;;;;20.25;16.75;;;;;19.74;33.46;103055.56;5065592;27;51527;-45
2022/03/19 07:05:33;;;;;;;;;26.25;25.00;;;;;19.71;33.20;103038.53;5056575;27;51111;-49
2022/03/19 07:08:01;;;;;;;;;29.25;25.25;;;;;19.69;32.79;103048.81;5056074;28;51023;-48
2022/03/19 07:10:26;;;;;;;;;31.50;27.00;;;;;19.64;32.33;103041.06;5054760;28;51147;-50
2022/03/19 07:12:55;;;;;;;;;30.25;25.75;;;;;19.62;32.39;103045.03;5057571;28;51164;-47
2022/03/19 07:15:29;;;;;;;;;31.75;28.00;;;;;19.56;32.16;103043.78;5069002;28;51133;-50
2022/03/19 07:18:02;;;;;;;;;35.25;30.50;;;;;19.53;31.97;103046.81;5077295;27;51296;-51
2022/03/19 07:20:30;;;;;;;;;34.00;30.00;;;;;19.49;31.84;103040.81;5076105;27;51140;-46
2022/03/19 07:22:58;;;;;;;;;31.00;28.75;;;;;19.46;31.45;103045.75;5078160;28;51224;-48
2022/03/19 07:25:24;;;;;;;;;34.50;28.00;;;;;19.42;31.40;103041.59;5078477;27;50994;-48
2022/03/19 07:27:52;;;;;;;;;36.00;31.50;;;;;19.40;31.24;103050.03;5077895;27;51288;-49
2022/03/19 07:30:18;;;;;;;;;48.75;36.00;;;;;19.36;31.56;103045.00;5069161;27;51187;-48
2022/03/19 07:32:44;;;;;;;;;40.25;34.25;;;;;19.32;31.25;103039.81;5060256;27;51144;-48
2022/03/19 07:35:10;;;;;;;;;40.00;33.00;;;;;19.29;31.37;103042.03;5068636;28;51048;-44
2022/03/19 07:37:37;;;;;;;;;39.50;32.75;;;;;19.27;31.30;103046.81;5078018;27;51070;-49
2022/03/19 07:40:04;;;;;;;;;41.50;34.00;;;;;19.25;31.51;103049.72;5074722;27;51809;-50
2022/03/19 07:42:29;;;;;;;;;49.25;38.75;;;;;19.22;31.26;103044.56;5077922;27;51000;-50
2022/03/19 07:44:55;;;;;;;;;41.50;36.50;;;;;19.20;31.21;103043.00;5063444;27;51149;-48
2022/03/19 07:47:20;;;;;;;;;44.50;36.25;;;;;19.17;31.04;103038.66;5062369;28;51338;-46
2022/03/19 07:49:46;;;;;;;;;44.75;36.00;;;;;19.18;31.33;103036.81;5063262;28;51294;-50
2022/03/19 07:52:11;;;;;;;;;35.25;29.75;;;;;19.23;31.28;103034.44;5068480;27;51244;-45
2022/03/19 07:54:38;;;;;;;;;30.50;25.75;;;;;19.30;31.25;103025.38;5069855;27;51512;-45
2022/03/19 07:57:04;;;;;;;;;32.00;30.00;;;;;19.40;31.85;103028.03;5064724;27;51129;-48
2022/03/19 07:59:30;;;;;;;;;24.00;21.50;;;;;19.49;31.94;103026.19;5070403;27;52016;-45
2022/03/19 08:01:56;;;;;;;;;30.25;26.25;;;;;19.59;32.02;103019.59;5058392;28;51880;-49
2022/03/19 08:04:22;;;;;;;;;26.25;23.00;;;;;19.71;32.38;103024.78;5063546;27;50915;-50
2022/03/19 08:06:53;;;;;;;;;24.25;21.75;;;;;19.79;32.31;103028.41;5056415;28;50992;-48
2022/03/19 08:09:18;;;;;;;;;24.50;21.00;;;;;19.92;32.24;103033.47;5075104;28;52028;-47
2022/03/19 08:11:44;;;;;;;;;21.25;20.50;;;;;20.01;32.39;103021.47;5059765;27;51123;-50
2022/03/19 08:14:09;;;;;;;;;23.50;23.50;;;;;20.11;32.53;103026.81;5077825;27;51039;-46
2022/03/19 08:16:35;;;;;;;;;22.75;20.00;;;;;20.21;32.69;103030.28;5076459;27;51119;-49
2022/03/19 08:19:00;;;;;;;;;7.75;6.50;;;;;20.32;32.26;103023.59;5073263;28;52293;-52
2022/03/19 08:21:26;;;;;;;;;17.75;17.50;;;;;20.42;32.68;103027.06;5062182;27;51243;-49
2022/03/19 08:23:52;;;;;;;;;21.75;20.25;;;;;20.47;32.39;103021.94;5071695;28;51110;-46
2022/03/19 08:26:18;;;;;;;;;18.75;17.00;;;;;20.53;32.87;103023.16;5066136;28;51255;-50
2022/03/19 08:28:43;;;;;;;;;19.25;17.25;;;;;20.55;32.60;103026.63;5060497;27;52081;-48
2022/03/19 08:31:09;;;;;;;;;17.75;17.25;;;;;20.57;33.13;103013.53;5066628;28;51194;-45
2022/03/19 08:33:34;;;;;;;;;18.50;16.50;;;;;20.61;33.14;103018.50;5061670;28;51588;-47
2022/03/19 08:35:59;;;;;;;;;18.00;17.75;;;;;20.64;33.26;103011.81;5063306;27;52724;-46
2022/03/19 08:41:08;;;;;;;;;26.50;22.75;;;;;20.68;33.38;103021.44;5069871;28;51740;-50
2022/03/19 08:43:34;;;;;;;;;24.00;19.75;;;;;20.69;33.96;103018.53;5067372;27;51215;-49
2022/03/19 08:45:59;;;;;;;;;22.75;19.00;;;;;20.72;33.98;103022.81;5072513;27;51127;-44
2022/03/19 08:48:25;;;;;;;;;26.00;22.75;;;;;20.79;33.70;103018.34;5071570;27;52596;-46
2022/03/19 08:50:50;;;;;;;;;17.75;17.50;;;;;20.89;33.82;103013.53;5069403;27;51087;-46
2022/03/19 08:53:16;;;;;;;;;25.25;20.25;;;;;21.01;33.61;103009.38;5061739;28;52652;-52
2022/03/19 08:55:42;;;;;;;;;24.75;21.50;;;;;21.11;33.52;103017.47;5059762;28;51013;-50
2022/03/19 08:58:07;;;;;;;;;21.00;18.50;;;;;21.18;33.48;103004.72;5065173;28;51016;-49
2022/03/19 09:00:33;;;;;;;;;25.25;22.50;;;;;21.23;33.77;103004.19;5063016;28;52035;-50
2022/03/19 09:02:59;;;;;;;;;23.25;22.75;;;;;21.27;33.65;103006.47;5058695;28;51051;-51
2022/03/19 09:05:27;;;;;;;;;28.00;23.25;;;;;21.30;33.47;103003.34;5070585;27;51968;-51
2022/03/19 09:07:53;;;;;;;;;27.75;21.00;;;;;21.32;33.42;103000.41;5067732;27;52652;-48
2022/03/19 09:10:18;;;;;;;;;29.75;24.00;;;;;21.36;33.07;103004.50;5062415;28;51153;-49
2022/03/19 09:12:43;;;;;;;;;27.25;23.25;;;;;21.37;32.74;103006.25;5065134;27;51124;-50
2022/03/19 09:15:11;;;;;;;;;29.75;22.50;;;;;21.40;33.06;102996.78;5076936;27;51094;-47
2022/03/19 09:17:37;;;;;;;;;25.75;23.00;;;;;21.42;32.85;102997.44;5070806;27;52274;-52
2022/03/19 09:20:03;;;;;;;;;30.75;24.75;;;;;21.44;33.11;102998.97;5068769;28;51288;-50
2022/03/19 09:22:32;;;;;;;;;34.00;28.50;;;;;21.47;32.53;103000.56;5058714;28;51199;-48
2022/03/19 09:24:57;;;;;;;;;36.75;31.25;;;;;21.50;32.35;102990.03;5059808;27;51166;-48
2022/03/19 09:27:23;;;;;;;;;31.25;28.25;;;;;21.60;32.03;102995.31;5066669;28;51931;-47
2022/03/19 09:29:48;;;;;;;;;28.50;25.25;;;;;21.69;32.22;102999.78;5073136;27;51259;-47
2022/03/19 09:32:16;;;;;;;;;36.00;30.50;;;;;21.80;31.79;102987.47;5057629;28;51283;-49
2022/03/19 09:34:43;;;;;;;;;30.25;28.25;;;;;21.88;31.91;102982.78;5057912;28;51151;-50
2022/03/19 09:37:09;;;;;;;;;33.75;30.50;;;;;21.96;31.96;102976.34;5067803;27;51219;-48
2022/03/19 09:39:34;;;;;;;;;37.50;31.00;;;;;21.99;32.42;102986.16;5070934;27;51155;-49
2022/03/19 09:42:01;;;;;;;;;34.25;28.00;;;;;22.00;32.63;102980.47;5061392;28;51078;-48
2022/03/19 09:44:26;;;;;;;;;28.00;27.25;;;;;22.02;32.95;102977.53;5063150;28;51354;-50
2022/03/19 09:46:52;;;;;;;;;35.00;28.00;;;;;22.02;33.13;102978.41;5064156;28;53017;-51
2022/03/19 09:49:19;;;;;;;;;31.25;26.75;;;;;22.02;32.96;102972.88;5069724;28;51125;-52
2022/03/19 09:52:03;;;;;;;;;28.75;26.00;;;;;22.04;32.98;102969.94;5055117;28;51412;-51
2022/03/19 09:54:29;;;;;;;;;25.50;25.00;;;;;22.03;33.13;102966.31;5059821;28;51090;-48
2022/03/19 09:56:54;;;;;;;;;29.25;23.75;;;;;22.05;33.43;102966.13;5068500;28;51772;-47
2022/03/19 09:59:22;;;;;;;;;28.00;24.50;;;;;22.04;34.20;102958.88;5065068;27;51076;-48
2022/03/19 10:01:48;;;;;;;;;27.25;26.00;;;;;22.04;35.10;102969.94;5060461;27;51290;-48
2022/03/19 10:04:20;;;;;;;;;29.50;23.25;;;;;22.00;35.59;102963.94;5060232;27;51163;-48
2022/03/19 10:09:42;;;;;;;;;30.25;26.50;;;;;21.91;35.87;102953.97;5069240;28;51055;-51
2022/03/19 10:12:22;;;;;;;;;24.25;20.75;;;;;21.88;35.95;102944.16;5058445;28;51158;-47
2022/03/19 10:14:53;;;;;;;;;23.25;22.50;;;;;21.86;36.97;102956.41;5068397;28;51620;-51
2022/03/19 10:17:32;;;;;;;;;24.00;22.25;;;;;21.84;37.23;102950.22;5061679;27;51014;-51
2022/03/19 10:20:07;;;;;;;;;21.50;19.25;;;;;21.83;36.80;102962.28;5056088;28;51377;-47
2022/03/19 10:22:33;;;;;;;;;24.00;20.50;;;;;21.82;37.45;102955.91;5068558;28;51324;-51
2022/03/19 10:25:06;;;;;;;;;22.50;20.75;;;;;21.86;37.34;102937.09;5062448;28;51062;-54
2022/03/19 10:27:36;;;;;;;;;25.25;23.50;;;;;21.94;38.11;102938.94;5066041;28;51706;-56
2022/03/19 10:30:09;;;;;;;;;18.25;17.25;;;;;22.00;37.77;102936.31;5065875;27;51465;-56
2022/03/19 10:32:36;;;;;;;;;21.00;17.25;;;;;22.03;38.12;102943.38;5068677;28;51071;-50
2022/03/19 10:35:03;;;;;;;;;21.75;21.75;;;;;22.04;38.61;102931.28;5063341;27;52150;-49
2022/03/19 10:37:46;;;;;;;;;25.75;21.25;;;;;22.05;38.82;102924.72;5056648;27;51198;-48
2022/03/19 10:40:12;;;;;;;;;28.50;20.75;;;;;22.07;39.10;102933.72;5068608;28;51167;-48
2022/03/19 10:42:39;;;;;;;;;22.50;17.50;;;;;22.06;39.08;102929.19;5055983;28;51255;-46
2022/03/19 10:45:18;;;;;;;;;19.50;16.25;;;;;22.04;39.05;102928.53;5062146;28;51789;-47
2022/03/19 10:47:46;;;;;;;;;23.00;21.50;;;;;22.03;39.58;102930.44;5066554;28;52016;-47
2022/03/19 10:50:21;;;;;;;;;22.50;20.25;;;;;22.03;39.51;102918.53;5058984;28;51544;-50
2022/03/19 10:52:48;;;;;;;;;18.75;18.50;;;;;22.02;39.26;102925.09;5073039;28;51566;-46
2022/03/19 10:55:15;;;;;;;;;19.75;18.75;;;;;22.01;39.59;102918.72;5061143;28;51431;-49
2022/03/19 10:57:41;;;;;;;;;22.00;21.00;;;;;22.01;39.77;102917.88;5060012;28;52231;-46
2022/03/19 11:00:08;;;;;;;;;21.50;20.25;;;;;22.00;39.49;102921.66;5054119;27;52729;-49
2022/03/19 11:02:38;;;;;;;;;21.75;19.75;;;;;22.00;40.03;102914.25;5058970;27;51647;-47
2022/03/19 11:05:06;;;;;;;;;23.25;21.25;;;;;22.01;39.84;102926.16;5053653;28;51265;-44
2022/03/19 11:07:34;;;;;;;;;22.50;18.50;;;;;22.00;40.33;102907.88;5053562;27;51453;-49
2022/03/19 11:10:04;;;;;;;;;22.25;16.50;;;;;22.00;40.15;102917.00;5058089;27;51061;-48
2022/03/19 11:12:32;;;;;;;;;20.25;19.50;;;;;21.99;40.00;102906.13;5052742;27;51172;-50
2022/03/19 11:14:59;;;;;;;;;23.00;22.00;;;;;21.98;40.33;102909.94;5059925;28;51571;-49
2022/03/19 11:17:30;;;;;;;;;20.50;17.75;;;;;21.98;40.43;102916.31;5060574;28;51813;-50
2022/03/19 11:20:00;;;;;;;;;18.00;17.00;;;;;21.97;40.08;102899.94;5058164;27;51139;-51
2022/03/19 11:22:29;;;;;;;;;22.75;17.75;;;;;21.96;40.25;102901.84;5059835;28;51140;-49
2022/03/19 11:25:22;;;;;;;;;19.00;18.25;;;;;21.96;40.65;102896.31;5056825;28;51468;-50
2022/03/19 11:27:51;;;;;;;;;20.50;20.00;;;;;21.95;39.94;102894.59;5057105;28;51276;-51
2022/03/19 11:30:20;;;;;;;;;22.00;21.25;;;;;21.95;40.21;102886.31;5057401;27;51832;-48